Time;durP1;ratioP1;P1;durP2;ratioP2;P2;SDS_P1;SDS_P2;PMS_P1;PMS_P2;Temp;Humidity;BMP_temperature;BMP_pressure;BME280_temperature;BME280_humidity;BME280_pressure;Samples;Min_cycle;Max_cycle;Signal;HPM_P1;HPM_P2
2022/12/11 00:02:05;;;;;;;22.30;10.88;;;;;;;3.88;50.11;100782.56;4901657;28;98206;-72
2022/12/11 00:04:32;;;;;;;22.08;10.80;;;;;;;3.72;50.42;100775.72;4909349;28;98903;-73
2022/12/11 00:06:58;;;;;;;22.80;10.48;;;;;;;3.67;51.04;100778.38;4905414;28;96883;-72
2022/12/11 00:09:24;;;;;;;22.10;10.73;;;;;;;3.85;50.29;100774.75;4905093;28;96768;-74
2022/12/11 00:11:51;;;;;;;20.65;11.13;;;;;;;3.91;49.88;100769.47;4909852;28;98799;-73
2022/12/11 00:14:18;;;;;;;21.05;10.90;;;;;;;3.45;50.92;100761.97;4907760;28;99167;-73
2022/12/11 00:16:47;;;;;;;26.83;10.98;;;;;;;3.35;51.20;100760.28;4907622;28;96794;-72
2022/12/11 00:19:15;;;;;;;24.13;12.23;;;;;;;3.51;51.38;100756.72;4909589;28;96817;-72
2022/12/11 00:21:42;;;;;;;24.23;11.25;;;;;;;3.88;50.45;100769.50;4907852;28;98890;-74
2022/12/11 00:24:10;;;;;;;23.58;11.02;;;;;;;3.57;50.81;100761.88;4905879;28;97736;-73
2022/12/11 00:26:36;;;;;;;23.45;12.02;;;;;;;3.74;50.95;100774.00;4911157;28;97901;-72
2022/12/11 00:29:03;;;;;;;24.88;11.85;;;;;;;4.01;50.26;100769.38;4912433;28;96954;-73
2022/12/11 00:31:30;;;;;;;22.63;10.73;;;;;;;3.87;50.17;100766.00;4913293;28;99433;-72
2022/12/11 00:33:56;;;;;;;22.27;10.93;;;;;;;3.55;50.62;100763.63;4909127;28;98882;-72
2022/12/11 00:36:26;;;;;;;22.63;11.07;;;;;;;3.51;50.97;100767.16;4910319;28;96769;-74
2022/12/11 00:38:53;;;;;;;20.20;10.32;;;;;;;3.43;50.79;100762.84;4908167;28;97893;-73
2022/12/11 00:41:21;;;;;;;22.13;11.18;;;;;;;3.45;51.52;100761.09;4909327;28;97827;-73
2022/12/11 00:43:48;;;;;;;22.08;12.30;;;;;;;3.59;50.96;100757.53;4910556;28;99387;-72
2022/12/11 00:46:14;;;;;;;22.63;11.13;;;;;;;3.50;51.05;100756.72;4907623;28;96720;-73
2022/12/11 00:48:41;;;;;;;22.00;10.77;;;;;;;3.80;50.62;100761.75;4908538;28;96738;-74
2022/12/11 00:51:08;;;;;;;25.77;12.02;;;;;;;3.98;49.99;100763.31;4905028;28;98970;-73
2022/12/11 00:53:36;;;;;;;23.27;10.63;;;;;;;4.12;50.02;100765.81;4908734;28;99129;-73
2022/12/11 00:56:09;;;;;;;26.25;12.27;;;;;;;3.84;49.59;100765.19;4907638;28;97331;-73
2022/12/11 00:58:36;;;;;;;22.55;11.88;;;;;;;3.91;49.88;100759.03;4909116;28;96678;-74
2022/12/11 01:01:06;;;;;;;26.88;11.65;;;;;;;3.98;50.07;100764.19;4913545;28;99542;-72
2022/12/11 01:03:32;;;;;;;29.60;12.93;;;;;;;4.15;49.81;100756.19;4913776;28;98738;-73
2022/12/11 01:05:59;;;;;;;24.80;11.80;;;;;;;4.42;49.49;100760.28;4915278;28;97096;-73
2022/12/11 01:08:25;;;;;;;22.85;12.30;;;;;;;4.37;48.86;100762.09;4911932;28;96955;-74
2022/12/11 01:11:00;;;;;;;25.70;13.07;;;;;;;4.64;47.98;100759.19;4915631;28;99468;-74
2022/12/11 01:13:27;;;;;;;26.83;12.40;;;;;;;4.76;48.72;100755.56;4909703;28;98998;-73
2022/12/11 01:15:53;;;;;;;27.48;13.07;;;;;;;4.79;47.61;100761.63;4910193;28;96760;-73
2022/12/11 01:18:19;;;;;;;28.88;13.48;;;;;;;4.77;47.70;100760.78;4907604;28;98500;-73
2022/12/11 01:20:46;;;;;;;25.38;12.82;;;;;;;4.62;47.82;100773.16;4911463;28;98987;-73
2022/12/11 01:23:13;;;;;;;29.10;14.15;;;;;;;4.68;47.62;100780.94;4912150;28;98660;-75
2022/12/11 01:25:40;;;;;;;38.17;16.00;;;;;;;4.32;48.66;100779.59;4909551;28;97800;-74
2022/12/11 01:28:09;;;;;;;25.67;13.32;;;;;;;4.10;49.90;100778.91;4908663;28;96928;-74
2022/12/11 01:30:36;;;;;;;27.52;14.25;;;;;;;4.14;49.72;100785.84;4906128;28;98988;-73
2022/12/11 01:33:03;;;;;;;26.58;13.95;;;;;;;4.18;49.63;100774.50;4910667;28;98738;-74
2022/12/11 01:35:30;;;;;;;29.75;13.73;;;;;;;3.84;50.56;100784.34;4907853;28;96701;-72
2022/12/11 01:37:56;;;;;;;33.42;14.65;;;;;;;3.63;51.29;100776.66;4912022;28;96847;-73
2022/12/11 01:40:23;;;;;;;25.90;12.77;;;;;;;3.71;51.02;100774.00;4908878;28;98874;-73
2022/12/11 01:42:50;;;;;;;30.00;14.27;;;;;;;3.87;50.83;100767.78;4909951;28;97009;-73
2022/12/11 01:45:29;;;;;;;30.58;13.98;;;;;;;3.81;51.40;100765.19;4908275;28;97521;-74
2022/12/11 01:48:02;;;;;;;24.20;12.60;;;;;;;3.68;50.91;100768.78;4912162;28;97273;-74
2022/12/11 01:50:30;;;;;;;33.17;14.05;;;;;;;3.42;51.67;100756.75;4911281;28;99030;-74
2022/12/11 01:52:57;;;;;;;26.40;13.43;;;;;;;3.75;51.01;100770.47;4913436;28;98881;-73
2022/12/11 01:55:24;;;;;;;27.70;13.50;;;;;;;4.19;49.99;100776.22;4910734;28;96683;-73
2022/12/11 01:57:52;;;;;;;30.70;14.32;;;;;;;4.43;50.16;100776.84;4913216;28;96799;-75
2022/12/11 02:00:20;;;;;;;29.48;15.15;;;;;;;4.43;49.52;100775.13;4910304;28;99051;-73
2022/12/11 02:02:48;;;;;;;26.55;13.60;;;;;;;4.40;49.76;100789.06;4911541;28;99211;-74
2022/12/11 02:05:14;;;;;;;30.38;14.85;;;;;;;4.39;49.37;100783.88;4908993;28;96947;-72
2022/12/11 02:07:45;;;;;;;33.72;14.60;;;;;;;4.21;49.80;100769.22;4911325;28;96831;-72
2022/12/11 02:10:12;;;;;;;30.63;14.15;;;;;;;4.28;50.16;100772.63;4904698;28;99898;-73
2022/12/11 02:12:47;;;;;;;23.25;13.95;;;;;;;4.16;50.61;100770.13;4906599;28;98951;-73
2022/12/11 02:15:21;;;;;;;28.98;14.68;;;;;;;3.81;50.93;100771.28;4909732;28;98049;-74
2022/12/11 02:17:59;;;;;;;29.50;13.90;;;;;;;3.80;51.62;100777.41;4908114;28;97287;-72
2022/12/11 02:20:31;;;;;;;28.42;13.50;;;;;;;3.75;51.64;100778.31;4908803;28;98696;-73
2022/12/11 02:23:23;;;;;;;28.95;14.02;;;;;;;3.99;50.72;100778.13;4911352;28;99078;-74
2022/12/11 02:25:57;;;;;;;30.40;13.20;;;;;;;4.32;50.62;100783.06;4907566;28;96936;-73
2022/12/11 02:28:30;;;;;;;31.48;14.70;;;;;;;4.32;50.09;100784.81;4906684;28;96824;-74
2022/12/11 02:31:01;;;;;;;32.13;14.60;;;;;;;3.88;50.97;100785.19;4908980;28;98955;-72
2022/12/11 02:33:34;;;;;;;28.20;14.00;;;;;;;3.93;51.63;100778.19;4908037;28;98958;-73
2022/12/11 02:36:03;;;;;;;30.98;15.23;;;;;;;3.71;52.06;100776.59;4910335;28;97734;-75
2022/12/11 02:38:33;;;;;;;27.48;13.98;;;;;;;3.82;51.83;100772.16;4910997;28;96964;-73
2022/12/11 02:41:02;;;;;;;29.65;14.20;;;;;;;4.21;50.59;100770.94;4910662;28;99653;-74
2022/12/11 02:43:32;;;;;;;29.67;13.43;;;;;;;4.31;50.85;100760.41;4911871;28;98846;-75
2022/12/11 02:46:00;;;;;;;27.63;14.10;;;;;;;4.61;50.01;100768.81;4912140;28;96828;-73
2022/12/11 02:48:27;;;;;;;29.23;14.77;;;;;;;4.34;50.67;100762.97;4911865;28;97071;-73
2022/12/11 02:50:57;;;;;;;28.10;14.27;;;;;;;4.46;49.91;100769.00;4913586;28;99523;-71
2022/12/11 02:53:28;;;;;;;31.30;14.73;;;;;;;4.49;49.61;100761.09;4916515;28;97678;-76
2022/12/11 02:56:01;;;;;;;28.10;14.20;;;;;;;4.33;50.29;100755.16;4914270;28;97130;-73
2022/12/11 02:58:32;;;;;;;29.75;13.80;;;;;;;4.33;50.88;100756.00;4915554;28;96801;-74
2022/12/11 03:00:59;;;;;;;29.10;14.98;;;;;;;4.77;49.29;100771.25;4917121;28;99186;-72
2022/12/11 03:03:29;;;;;;;31.17;16.02;;;;;;;4.67;49.23;100760.88;4912464;28;100554;-73
2022/12/11 03:05:56;;;;;;;26.75;14.18;;;;;;;4.61;49.70;100763.56;4910098;28;97538;-72
2022/12/11 03:08:22;;;;;;;25.10;12.98;;;;;;;3.85;51.50;100766.91;4909254;28;96829;-72
2022/12/11 03:10:49;;;;;;;33.47;14.57;;;;;;;4.44;50.64;100769.00;4911517;28;98892;-74
2022/12/11 03:13:19;;;;;;;28.25;14.75;;;;;;;4.34;50.78;100768.22;4910950;28;99227;-73
2022/12/11 03:15:57;;;;;;;28.98;14.65;;;;;;;4.32;50.57;100764.75;4908078;28;96709;-73
2022/12/11 03:18:34;;;;;;;33.50;14.43;;;;;;;4.32;50.85;100764.75;4911025;28;96947;-73
2022/12/11 03:21:06;;;;;;;28.05;14.23;;;;;;;4.21;51.07;100768.34;4909993;28;98964;-73
2022/12/11 03:23:38;;;;;;;29.95;13.88;;;;;;;4.14;51.18;100770.13;4911088;28;99271;-73
2022/12/11 03:26:08;;;;;;;31.17;15.20;;;;;;;3.77;52.19;100764.34;4907998;28;98874;-73
2022/12/11 03:28:41;;;;;;;27.35;13.80;;;;;;;4.18;51.67;100765.78;4911602;28;96847;-74
2022/12/11 03:31:16;;;;;;;30.85;14.52;;;;;;;4.11;51.65;100770.19;4906002;28;97879;-73
2022/12/11 03:33:47;;;;;;;28.90;13.98;;;;;;;4.05;52.08;100780.69;4906979;28;99323;-74
2022/12/11 03:36:21;;;;;;;34.28;15.45;;;;;;;4.18;51.45;100777.09;4909189;28;96970;-73
2022/12/11 03:38:51;;;;;;;25.60;13.93;;;;;;;4.26;51.94;100772.66;4903439;28;96739;-73
2022/12/11 03:41:20;;;;;;;26.52;15.18;;;;;;;4.21;52.32;100777.06;4907264;28;99338;-72
2022/12/11 03:43:48;;;;;;;31.38;15.18;;;;;;;4.32;52.11;100779.59;4908331;28;99039;-73
2022/12/11 03:46:18;;;;;;;31.63;13.95;;;;;;;4.17;52.55;100767.50;4907722;28;97009;-75
2022/12/11 03:48:48;;;;;;;29.60;15.18;;;;;;;4.45;51.30;100768.13;4910983;28;97571;-73
2022/12/11 03:51:17;;;;;;;42.13;15.90;;;;;;;4.66;51.21;100759.19;4912445;28;99375;-71
2022/12/11 03:53:44;;;;;;;30.83;13.90;;;;;;;4.71;50.73;100762.59;4912173;28;96835;-72
2022/12/11 03:56:14;;;;;;;31.98;14.43;;;;;;;4.55;51.24;100774.97;4911916;28;96756;-73
2022/12/11 03:58:41;;;;;;;27.73;14.70;;;;;;;4.55;51.11;100761.03;4908755;28;97186;-71
2022/12/11 04:01:08;;;;;;;28.48;15.38;;;;;;;4.72;50.58;100766.97;4911731;28;98937;-73
2022/12/11 04:03:36;;;;;;;31.02;15.40;;;;;;;4.88;50.54;100763.25;4906363;28;99188;-74
2022/12/11 04:06:03;;;;;;;31.50;15.48;;;;;;;4.97;50.39;100765.78;4910401;28;96815;-72
2022/12/11 04:08:30;;;;;;;29.98;14.75;;;;;;;5.00;49.92;100759.63;4908977;28;96898;-73
2022/12/11 04:13:37;;;;;;;27.45;14.90;;;;;;;3.82;53.03;100753.88;4909832;28;99091;-73
2022/12/11 04:16:02;;;;;;;28.73;14.98;;;;;;;3.74;53.42;100758.31;4904961;28;96855;-73
2022/12/11 04:24:17;;;;;;;32.20;15.45;;;;;;;3.48;54.10;100748.88;4909960;28;97010;-74
2022/12/11 04:26:45;;;;;;;27.33;14.18;;;;;;;3.57;53.83;100750.56;4900918;28;96877;-72
2022/12/11 04:29:12;;;;;;;36.45;14.63;;;;;;;3.58;54.28;100752.31;4905115;28;97280;-72
2022/12/11 04:31:38;;;;;;;29.75;15.23;;;;;;;3.78;53.54;100755.66;4908023;28;99116;-76
2022/12/11 04:34:05;;;;;;;32.03;15.07;;;;;;;3.75;54.33;100747.81;4907956;28;98849;-74
2022/12/11 04:36:32;;;;;;;28.77;14.82;;;;;;;4.00;53.48;100746.72;4909577;28;96762;-74
2022/12/11 04:38:59;;;;;;;28.45;14.05;;;;;;;4.06;52.43;100745.84;4910035;28;97908;-74
2022/12/11 04:41:25;;;;;;;34.53;14.05;;;;;;;3.99;53.23;100745.03;4908592;28;98924;-72
2022/12/11 04:43:52;;;;;;;27.33;14.38;;;;;;;3.89;53.76;100742.47;4903695;28;99234;-72
2022/12/11 04:46:20;;;;;;;29.95;15.10;;;;;;;4.03;53.33;100743.22;4907116;28;98160;-72
2022/12/11 04:48:48;;;;;;;27.98;14.57;;;;;;;3.71;54.11;100743.50;4907142;28;96973;-71
2022/12/11 04:51:15;;;;;;;31.80;14.77;;;;;;;3.62;53.95;100735.72;4906617;28;97965;-72
2022/12/11 04:53:43;;;;;;;29.67;13.93;;;;;;;3.52;54.53;100736.69;4907045;28;99334;-72
2022/12/11 04:56:12;;;;;;;30.98;15.05;;;;;;;3.74;53.95;100747.84;4908221;28;96856;-71
2022/12/11 04:58:40;;;;;;;32.15;14.40;;;;;;;4.02;53.16;100746.72;4909583;28;96861;-72
2022/12/11 05:01:10;;;;;;;28.20;14.50;;;;;;;4.17;52.60;100749.22;4904345;28;99513;-72
2022/12/11 05:03:37;;;;;;;29.13;14.85;;;;;;;4.44;52.03;100752.44;4906573;28;98950;-73
2022/12/11 05:06:04;;;;;;;30.23;14.55;;;;;;;4.01;52.98;100751.06;4910309;28;97014;-73
2022/12/11 05:08:30;;;;;;;29.85;15.10;;;;;;;4.25;52.61;100746.53;4907439;28;96973;-72
2022/12/11 05:11:00;;;;;;;26.48;14.32;;;;;;;3.84;53.94;100736.44;4910054;28;99284;-73
2022/12/11 05:13:27;;;;;;;27.77;14.35;;;;;;;3.73;53.94;100746.13;4908972;28;99230;-72
2022/12/11 05:15:54;;;;;;;27.23;14.48;;;;;;;3.74;53.94;100737.41;4907928;28;98565;-74
2022/12/11 05:18:21;;;;;;;30.00;14.77;;;;;;;3.60;54.08;100740.97;4911470;28;97666;-73
2022/12/11 05:20:57;;;;;;;35.92;15.77;;;;;;;4.05;53.11;100738.88;4909479;28;100213;-72
2022/12/11 05:23:23;;;;;;;36.78;15.57;;;;;;;4.12;53.41;100747.53;4910137;28;98854;-72
2022/12/11 05:25:52;;;;;;;33.15;15.70;;;;;;;4.27;52.78;100737.75;4910610;28;96753;-72
2022/12/11 05:28:21;;;;;;;36.88;16.10;;;;;;;4.20;53.02;100736.09;4910928;28;96827;-73
2022/12/11 05:30:47;;;;;;;32.78;14.77;;;;;;;4.18;52.90;100740.47;4907898;28;99047;-73
2022/12/11 05:33:14;;;;;;;33.38;16.52;;;;;;;4.23;52.56;100736.06;4903651;28;98947;-73
2022/12/11 05:35:47;;;;;;;34.17;16.27;;;;;;;4.35;52.13;100732.44;4906578;28;96813;-73
2022/12/11 05:38:13;;;;;;;36.60;16.85;;;;;;;4.51;51.55;100734.03;4910231;28;97461;-72
2022/12/11 05:40:40;;;;;;;39.95;17.02;;;;;;;4.53;51.36;100732.25;4911280;28;98809;-73
2022/12/11 05:43:07;;;;;;;31.05;16.45;;;;;;;4.44;51.78;100740.22;4911726;28;98716;-73
2022/12/11 05:45:35;;;;;;;33.08;15.25;;;;;;;4.46;51.60;100730.63;4906412;28;96803;-73
2022/12/11 05:48:01;;;;;;;34.67;15.35;;;;;;;4.11;52.90;100735.31;4906990;28;97828;-74
2022/12/11 05:50:28;;;;;;;37.92;16.10;;;;;;;4.47;51.83;100741.91;4911361;28;99315;-72
2022/12/11 05:52:54;;;;;;;37.47;16.33;;;;;;;4.43;51.95;100735.00;4913954;28;97547;-72
2022/12/11 05:55:21;;;;;;;37.90;17.65;;;;;;;4.27;51.52;100729.91;4913087;28;96989;-73
2022/12/11 05:57:47;;;;;;;34.13;16.02;;;;;;;4.22;52.08;100731.72;4913529;28;96795;-72
2022/12/11 06:00:14;;;;;;;35.85;17.50;;;;;;;4.15;52.60;100730.03;4911156;28;100239;-74
2022/12/11 06:02:41;;;;;;;43.17;18.25;;;;;;;4.26;52.08;100736.06;4911452;28;98820;-73
2022/12/11 06:05:08;;;;;;;34.55;16.02;;;;;;;4.24;51.58;100729.97;4908871;28;97939;-72
2022/12/11 06:07:34;;;;;;;36.88;15.77;;;;;;;4.08;52.11;100727.50;4908412;28;96955;-73
2022/12/11 06:10:01;;;;;;;31.77;14.45;;;;;;;4.14;52.41;100723.06;4911928;28;99561;-73
2022/12/11 06:12:28;;;;;;;29.80;14.75;;;;;;;4.34;52.27;100728.97;4912476;28;98841;-73
2022/12/11 06:14:55;;;;;;;42.72;18.63;;;;;;;4.25;51.66;100720.38;4912081;28;96786;-73
2022/12/11 06:17:21;;;;;;;30.35;14.18;;;;;;;4.17;52.60;100722.19;4912058;28;96852;-73
2022/12/11 06:19:49;;;;;;;31.42;12.52;;;;;;;4.29;51.72;100724.66;4908436;28;101463;-72
2022/12/11 06:22:16;;;;;;;28.67;14.18;;;;;;;4.21;52.15;100731.72;4904940;28;99147;-72
2022/12/11 06:24:42;;;;;;;34.05;14.93;;;;;;;4.28;52.44;100731.66;4903791;28;96831;-72
2022/12/11 06:27:09;;;;;;;30.42;12.95;;;;;;;4.51;50.61;100727.94;4910085;28;96811;-71
2022/12/11 06:29:35;;;;;;;24.55;13.40;;;;;;;4.33;49.86;100721.16;4896376;28;98978;-73
2022/12/11 06:32:02;;;;;;;24.50;11.75;;;;;;;4.17;49.80;100725.66;4909811;28;99434;-72
2022/12/11 06:34:29;;;;;;;23.38;11.77;;;;;;;4.25;49.29;100720.38;4906911;28;96678;-73
2022/12/11 06:36:56;;;;;;;20.63;11.48;;;;;;;4.22;48.97;100716.03;4906173;28;96971;-73
2022/12/11 06:39:23;;;;;;;22.63;11.25;;;;;;;4.22;48.36;100725.63;4910671;28;99212;-75
2022/12/11 06:41:49;;;;;;;20.48;10.60;;;;;;;4.05;48.26;100728.41;4910015;28;99192;-74
2022/12/11 06:44:16;;;;;;;20.52;10.70;;;;;;;4.09;48.36;100731.84;4908967;28;96661;-74
2022/12/11 06:46:42;;;;;;;26.23;11.77;;;;;;;4.07;48.82;100724.00;4907671;28;97094;-73
2022/12/11 06:49:09;;;;;;;30.35;11.75;;;;;;;4.16;47.91;100737.00;4904428;28;98861;-73
2022/12/11 06:51:35;;;;;;;21.33;11.27;;;;;;;4.01;48.07;100730.16;4906736;28;98979;-72
2022/12/11 06:54:03;;;;;;;20.83;10.02;;;;;;;4.11;47.33;100740.56;4899185;28;96770;-73
2022/12/11 06:56:30;;;;;;;21.55;10.02;;;;;;;3.92;47.58;100732.88;4909613;28;96936;-72
2022/12/11 06:58:56;;;;;;;21.15;10.13;;;;;;;3.91;46.88;100744.22;4910906;28;99118;-74
2022/12/11 07:01:26;;;;;;;17.88;9.77;;;;;;;3.72;47.40;100744.38;4910130;28;98867;-72
2022/12/11 07:03:53;;;;;;;26.02;12.32;;;;;;;3.94;46.64;100736.31;4901027;28;96974;-73
2022/12/11 07:06:19;;;;;;;21.52;10.98;;;;;;;3.73;46.67;100746.13;4909112;28;97065;-73
2022/12/11 07:08:46;;;;;;;23.55;10.90;;;;;;;3.68;47.13;100748.75;4910839;28;98962;-73
2022/12/11 07:11:16;;;;;;;16.92;9.05;;;;;;;3.88;46.90;100738.13;4914470;28;97698;-72
2022/12/11 07:13:43;;;;;;;17.70;8.95;;;;;;;4.00;45.90;100735.44;4906686;28;97648;-73
2022/12/11 07:16:11;;;;;;;18.85;9.13;;;;;;;3.82;46.59;100725.09;4910051;28;96926;-73
2022/12/11 07:18:40;;;;;;;24.70;10.63;;;;;;;3.85;47.02;100719.88;4914799;28;98815;-72
2022/12/11 07:21:07;;;;;;;20.27;10.85;;;;;;;4.04;46.64;100731.91;4909980;28;98788;-73
2022/12/11 07:23:34;;;;;;;22.05;10.90;;;;;;;3.45;47.74;100733.25;4907284;28;97659;-72
2022/12/11 07:26:04;;;;;;;19.70;10.30;;;;;;;3.54;48.45;100738.38;4907916;28;96817;-72
2022/12/11 07:28:32;;;;;;;26.58;9.45;;;;;;;3.66;47.14;100734.84;4906924;28;98396;-73
2022/12/11 07:30:59;;;;;;;19.85;9.35;;;;;;;3.53;47.22;100741.91;4909941;28;98882;-72
2022/12/11 07:33:25;;;;;;;21.20;10.05;;;;;;;3.49;47.52;100745.38;4906074;28;96732;-73
2022/12/11 07:35:51;;;;;;;22.35;10.05;;;;;;;3.65;47.48;100750.53;4909897;28;97420;-73
2022/12/11 07:38:18;;;;;;;19.92;9.38;;;;;;;3.60;47.07;100746.22;4899994;28;99044;-74
2022/12/11 07:40:44;;;;;;;19.77;9.30;;;;;;;3.88;47.05;100735.50;4906090;28;99058;-72
2022/12/11 07:43:11;;;;;;;20.08;9.77;;;;;;;3.87;46.56;100741.66;4905207;28;99246;-73
2022/12/11 07:45:39;;;;;;;19.45;9.15;;;;;;;3.79;46.65;100740.84;4902347;28;97201;-72
2022/12/11 07:48:06;;;;;;;19.63;9.93;;;;;;;3.86;46.72;100750.38;4909912;28;99124;-74
2022/12/11 07:50:32;;;;;;;18.73;9.95;;;;;;;3.92;46.57;100759.03;4901089;28;98855;-74
2022/12/11 07:52:59;;;;;;;18.38;10.20;;;;;;;3.87;46.48;100752.09;4909579;28;97309;-72
2022/12/11 07:55:25;;;;;;;22.02;10.70;;;;;;;3.84;46.88;100754.72;4907739;28;96766;-72
2022/12/11 07:57:52;;;;;;;22.55;10.75;;;;;;;4.16;46.21;100757.94;4910610;28;100125;-72
2022/12/11 08:00:18;;;;;;;21.17;10.57;;;;;;;4.13;46.02;100751.88;4908995;28;98265;-71
2022/12/11 08:02:46;;;;;;;19.35;9.50;;;;;;;4.05;46.87;100749.31;4908423;28;97650;-73
2022/12/11 08:05:13;;;;;;;19.50;9.73;;;;;;;3.97;46.60;100751.13;4911148;28;97954;-74
2022/12/11 08:07:39;;;;;;;22.08;9.23;;;;;;;4.30;45.87;100750.81;4908728;28;100310;-73
2022/12/11 08:10:06;;;;;;;21.45;10.32;;;;;;;4.17;46.11;100748.34;4909199;28;98784;-72
2022/12/11 08:12:33;;;;;;;20.13;9.52;;;;;;;4.10;46.31;100752.75;4911137;28;96730;-72
2022/12/11 08:14:59;;;;;;;23.17;10.55;;;;;;;4.29;45.95;100754.31;4910980;28;96734;-73
2022/12/11 08:17:26;;;;;;;19.52;9.75;;;;;;;4.48;45.63;100748.88;4907336;28;102050;-73
2022/12/11 08:19:53;;;;;;;20.42;10.35;;;;;;;4.47;45.79;100758.47;4906056;28;98888;-73
2022/12/11 08:22:20;;;;;;;22.40;10.55;;;;;;;4.34;46.94;100757.75;4905961;28;97532;-72
2022/12/11 08:24:47;;;;;;;21.10;10.60;;;;;;;4.49;46.00;100756.72;4904826;28;97346;-72
2022/12/11 08:27:13;;;;;;;20.35;9.65;;;;;;;4.70;45.21;100758.25;4906481;28;99407;-72
2022/12/11 08:29:40;;;;;;;19.85;9.65;;;;;;;4.68;45.63;100762.63;4902097;28;99241;-73
2022/12/11 08:32:06;;;;;;;20.77;9.50;;;;;;;4.52;45.51;100763.69;4908421;28;96987;-71
2022/12/11 08:34:33;;;;;;;18.85;10.07;;;;;;;4.65;45.52;100760.94;4905591;28;97361;-73
2022/12/11 08:37:00;;;;;;;22.17;10.25;;;;;;;4.53;45.52;100758.41;4909138;28;98938;-73
2022/12/11 08:39:27;;;;;;;22.10;10.55;;;;;;;4.60;45.01;100765.31;4909528;28;98973;-73
2022/12/11 08:41:54;;;;;;;19.90;10.35;;;;;;;4.56;45.58;100768.00;4908298;28;96964;-73
2022/12/11 08:44:23;;;;;;;17.75;9.88;;;;;;;4.30;45.80;100763.91;4907702;28;97680;-73
2022/12/11 08:46:50;;;;;;;19.45;9.13;;;;;;;4.49;45.59;100764.59;4901673;28;99802;-73
2022/12/11 08:49:17;;;;;;;19.25;10.35;;;;;;;4.54;45.43;100765.38;4908620;28;99034;-72
2022/12/11 08:51:43;;;;;;;20.10;9.65;;;;;;;4.59;45.75;100767.97;4911243;28;96787;-70
2022/12/11 08:54:11;;;;;;;21.73;10.65;;;;;;;4.60;45.23;100767.06;4910449;28;96885;-72
2022/12/11 08:56:37;;;;;;;22.10;10.68;;;;;;;4.21;45.80;100753.50;4909204;28;98896;-73
2022/12/11 08:59:05;;;;;;;23.35;11.63;;;;;;;4.43;46.03;100761.16;4910275;28;97784;-72
2022/12/11 09:01:31;;;;;;;19.90;10.18;;;;;;;4.34;46.36;100762.09;4911360;28;97150;-73
2022/12/11 09:03:58;;;;;;;20.52;9.63;;;;;;;4.48;45.89;100756.75;4906038;28;96852;-73
2022/12/11 09:06:26;;;;;;;18.77;9.68;;;;;;;4.53;45.32;100757.59;4910707;28;98955;-73
2022/12/11 09:08:53;;;;;;;21.52;10.63;;;;;;;4.31;45.93;100757.78;4912969;28;98392;-73
2022/12/11 09:11:24;;;;;;;22.42;9.57;;;;;;;4.60;45.83;100759.22;4906607;28;96820;-74
2022/12/11 09:13:51;;;;;;;28.70;12.70;;;;;;;4.44;45.98;100761.16;4906120;28;96759;-71
2022/12/11 09:16:20;;;;;;;23.67;10.93;;;;;;;4.24;46.70;100760.47;4907151;28;100564;-72
2022/12/11 09:18:47;;;;;;;20.60;10.07;;;;;;;4.62;45.92;100765.31;4912509;28;98870;-73
2022/12/11 09:21:17;;;;;;;24.00;10.55;;;;;;;4.52;46.29;100768.94;4906394;28;97009;-72
2022/12/11 09:23:44;;;;;;;22.00;11.55;;;;;;;4.63;46.17;100759.19;4908292;28;97536;-72
2022/12/11 09:26:14;;;;;;;20.58;9.70;;;;;;;4.75;45.64;100767.78;4907637;28;98294;-73
2022/12/11 09:28:42;;;;;;;20.13;10.65;;;;;;;4.86;45.86;100761.56;4909316;28;99291;-71
2022/12/11 09:31:10;;;;;;;24.80;11.32;;;;;;;4.90;45.47;100758.03;4908936;28;97141;-71
2022/12/11 09:33:37;;;;;;;21.45;11.07;;;;;;;4.57;45.67;100759.28;4907429;28;96868;-74
2022/12/11 09:36:05;;;;;;;20.05;10.52;;;;;;;4.48;46.00;100752.38;4908594;28;99097;-72
2022/12/11 09:38:32;;;;;;;21.30;10.25;;;;;;;4.40;46.29;100756.81;4909182;28;101501;-72
2022/12/11 09:40:59;;;;;;;21.67;11.05;;;;;;;4.27;47.46;100749.97;4907438;28;97615;-72
2022/12/11 09:43:37;;;;;;;22.23;10.77;;;;;;;4.44;46.48;100752.44;4911802;28;97578;-73
2022/12/11 09:46:10;;;;;;;21.10;10.40;;;;;;;4.85;45.76;100745.00;4912077;28;98857;-72
2022/12/11 09:48:39;;;;;;;20.38;10.90;;;;;;;4.60;46.09;100749.63;4902983;28;98981;-72
2022/12/11 09:51:14;;;;;;;21.65;10.55;;;;;;;4.81;46.14;100749.38;4905183;28;99465;-75
2022/12/11 09:53:40;;;;;;;21.27;10.35;;;;;;;4.89;45.77;100745.81;4908667;28;96896;-72
2022/12/11 09:56:16;;;;;;;19.25;9.98;;;;;;;5.05;45.59;100737.75;4907881;28;98943;-73
2022/12/11 09:58:59;;;;;;;20.33;10.20;;;;;;;4.78;46.49;100738.09;4909104;28;99037;-73
2022/12/11 10:01:38;;;;;;;22.15;10.57;;;;;;;4.91;46.22;100744.03;4907724;28;99449;-72
2022/12/11 10:04:27;;;;;;;26.35;12.45;;;;;;;5.08;46.21;100739.44;4910556;28;97085;-71
2022/12/11 10:07:05;;;;;;;24.52;11.85;;;;;;;5.02;45.82;100732.53;4911384;28;98335;-72
2022/12/11 10:09:40;;;;;;;22.27;10.80;;;;;;;5.20;45.42;100721.81;4910655;28;98917;-73
2022/12/11 10:12:19;;;;;;;23.20;11.10;;;;;;;4.96;45.70;100726.50;4907233;28;96979;-72
2022/12/11 10:14:58;;;;;;;22.77;11.35;;;;;;;4.70;46.77;100721.59;4905547;28;96824;-71
2022/12/11 10:17:30;;;;;;;22.35;10.65;;;;;;;4.89;46.30;100712.63;4905311;28;99313;-72
2022/12/11 10:20:00;;;;;;;22.15;11.23;;;;;;;5.13;45.55;100708.81;4907373;28;99072;-72
2022/12/11 10:22:31;;;;;;;24.75;11.45;;;;;;;4.80;46.39;100712.75;4906410;28;96870;-72
2022/12/11 10:25:00;;;;;;;24.25;11.65;;;;;;;4.74;46.54;100710.19;4908388;28;97420;-74
2022/12/11 10:27:30;;;;;;;20.10;11.07;;;;;;;4.92;46.14;100706.50;4912195;28;99000;-74
2022/12/11 10:30:28;;;;;;;21.13;11.73;;;;;;;4.78;46.49;100706.69;4914343;28;99492;-74
2022/12/11 10:33:06;;;;;;;22.40;11.70;;;;;;;4.77;46.30;100703.19;4904811;28;97142;-73
2022/12/11 10:35:39;;;;;;;21.58;10.82;;;;;;;4.72;46.36;100699.78;4906522;28;96835;-73
2022/12/11 10:38:26;;;;;;;22.05;11.55;;;;;;;4.57;46.76;100696.47;4913070;28;98926;-72
2022/12/11 10:40:56;;;;;;;20.17;10.43;;;;;;;4.50;47.67;100689.56;4909530;28;99667;-72
2022/12/11 10:43:33;;;;;;;22.80;11.52;;;;;;;4.79;47.05;100682.25;4909572;28;96758;-72
2022/12/11 10:45:59;;;;;;;24.52;11.60;;;;;;;4.66;47.28;100689.34;4907159;28;96837;-71
2022/12/11 10:48:27;;;;;;;24.85;11.77;;;;;;;4.81;46.94;100680.44;4906345;28;98997;-73
2022/12/11 10:51:00;;;;;;;25.15;11.90;;;;;;;4.68;46.94;100684.09;4910199;28;97420;-73
2022/12/11 10:53:27;;;;;;;21.88;11.55;;;;;;;4.55;46.95;100693.00;4904438;28;97472;-72
2022/12/11 10:55:57;;;;;;;23.85;11.88;;;;;;;4.32;47.66;100688.91;4900300;28;98402;-75
2022/12/11 10:58:26;;;;;;;24.35;11.85;;;;;;;4.56;47.64;100689.50;4903102;28;99146;-73
2022/12/11 11:01:04;;;;;;;24.25;11.82;;;;;;;4.69;47.33;100680.59;4896720;28;98906;-74
2022/12/11 11:03:34;;;;;;;26.60;11.63;;;;;;;4.72;46.67;100683.19;4906004;28;98073;-73
2022/12/11 11:06:03;;;;;;;23.20;11.75;;;;;;;4.71;47.01;100681.47;4896786;28;99008;-72
2022/12/11 11:08:39;;;;;;;24.98;12.70;;;;;;;4.91;47.15;100671.59;4906317;28;98561;-72
2022/12/11 11:11:07;;;;;;;20.90;10.93;;;;;;;4.65;46.85;100677.19;4900465;28;99379;-73
2022/12/11 11:13:35;;;;;;;22.00;11.35;;;;;;;4.43;47.10;100678.31;4901321;28;96911;-74
2022/12/11 11:16:04;;;;;;;17.65;9.82;;;;;;;3.87;48.42;100677.13;4904972;28;97442;-70
2022/12/11 11:18:33;;;;;;;22.08;10.98;;;;;;;3.85;49.01;100678.91;4906972;28;99232;-72
2022/12/11 11:21:00;;;;;;;20.10;10.23;;;;;;;4.03;48.67;100672.63;4908849;28;99338;-72
2022/12/11 11:23:29;;;;;;;19.88;10.05;;;;;;;4.36;47.93;100677.50;4910122;28;97452;-72
2022/12/11 11:25:58;;;;;;;20.33;10.00;;;;;;;4.64;46.72;100670.19;4904890;28;97588;-73
2022/12/11 11:28:28;;;;;;;21.25;10.68;;;;;;;4.71;47.21;100669.25;4907901;28;101116;-74
2022/12/11 11:31:02;;;;;;;24.27;11.18;;;;;;;4.92;46.28;100665.47;4908167;28;99200;-73
2022/12/11 11:33:30;;;;;;;21.52;10.10;;;;;;;5.06;45.61;100655.66;4906059;28;97863;-73